Time;durP1;ratioP1;P1;durP2;ratioP2;P2;SDS_P1;SDS_P2;PMS_P1;PMS_P2;Temp;Humidity;BMP_temperature;BMP_pressure;BME280_temperature;BME280_humidity;BME280_pressure;Samples;Min_cycle;Max_cycle;Signal;HPM_P1;HPM_P2
2021/01/16 00:01:51;;;;;;;;;;;;;;;;;;5073270;28;19908;-59
2021/01/16 00:04:16;;;;;;;;;;;;;;;;;;5072682;28;19913;-60
2021/01/16 00:06:42;;;;;;;;;;;;;;;;;;5072821;28;19919;-60
2021/01/16 00:09:08;;;;;;;;;;;;;;;;;;5073252;28;19912;-59
2021/01/16 00:11:34;;;;;;;;;;;;;;;;;;5073071;28;19908;-60
2021/01/16 00:14:00;;;;;;;;;;;;;;;;;;5073251;28;19936;-59
2021/01/16 00:16:26;;;;;;;;;;;;;;;;;;5072362;28;19912;-59
2021/01/16 00:18:52;;;;;;;;;;;;;;;;;;5073300;28;19912;-60
2021/01/16 00:21:18;;;;;;;;;;;;;;;;;;5072609;28;20310;-60
2021/01/16 00:23:43;;;;;;;;;;;;;;;;;;5072974;28;19978;-59
2021/01/16 00:26:09;;;;;;;;;;;;;;;;;;5073188;28;20365;-60
2021/01/16 00:28:35;;;;;;;;;;;;;;;;;;5072619;28;19913;-59
2021/01/16 00:31:01;;;;;;;;;;;;;;;;;;5072797;28;19928;-59
2021/01/16 00:33:27;;;;;;;;;;;;;;;;;;5073077;28;19908;-59
2021/01/16 00:35:53;;;;;;;;;;;;;;;;;;5073150;28;19908;-59
2021/01/16 00:38:19;;;;;;;;;;;;;;;;;;5072778;28;19993;-59
2021/01/16 00:40:45;;;;;;;;;;;;;;;;;;5072672;28;19923;-59
2021/01/16 00:43:12;;;;;;;;;;;;;;;;;;5072380;28;19912;-59
2021/01/16 00:45:37;;;;;;;;;;;;;;;;;;5072992;28;20298;-59
2021/01/16 00:48:03;;;;;;;;;;;;;;;;;;5073010;28;19905;-59
2021/01/16 00:50:29;;;;;;;;;;;;;;;;;;5072733;28;19912;-59
2021/01/16 00:52:55;;;;;;;;;;;;;;;;;;5072963;28;20309;-59
2021/01/16 00:55:21;;;;;;;;;;;;;;;;;;5072939;28;19908;-59
2021/01/16 00:57:47;;;;;;;;;;;;;;;;;;5072519;28;19913;-59
2021/01/16 01:00:13;;;;;;;;;;;;;;;;;;5075540;28;20024;-59
2021/01/16 01:02:39;;;;;;;;;;;;;;;;;;5072514;28;19916;-59
2021/01/16 01:05:05;;;;;;;;;;;;;;;;;;5072405;28;19909;-59
2021/01/16 01:07:31;;;;;;;;;;;;;;;;;;5072306;28;20350;-59
2021/01/16 01:09:57;;;;;;;;;;;;;;;;;;5072755;28;19912;-59
2021/01/16 01:12:22;;;;;;;;;;;;;;;;;;5072421;28;19916;-59
2021/01/16 01:14:48;;;;;;;;;;;;;;;;;;5072728;28;19913;-58
2021/01/16 01:17:14;;;;;;;;;;;;;;;;;;5072457;28;19966;-59
2021/01/16 01:19:40;;;;;;;;;;;;;;;;;;5072610;28;19919;-58
2021/01/16 01:22:06;;;;;;;;;;;;;;;;;;5072003;28;19913;-59
2021/01/16 01:24:32;;;;;;;;;;;;;;;;;;5072313;28;19912;-59
2021/01/16 01:26:58;;;;;;;;;;;;;;;;;;5072375;28;19927;-58
2021/01/16 01:29:24;;;;;;;;;;;;;;;;;;5075492;28;19954;-59
2021/01/16 01:31:50;;;;;;;;;;;;;;;;;;5075977;28;20013;-58
2021/01/16 01:34:15;;;;;;;;;;;;;;;;;;5076059;28;20278;-59
2021/01/16 01:36:41;;;;;;;;;;;;;;;;;;5076141;28;19908;-58
2021/01/16 01:39:07;;;;;;;;;;;;;;;;;;5076223;28;20616;-58
2021/01/16 01:41:33;;;;;;;;;;;;;;;;;;5075508;28;19924;-58
2021/01/16 01:43:59;;;;;;;;;;;;;;;;;;5075977;28;19913;-59
2021/01/16 01:46:25;;;;;;;;;;;;;;;;;;5075840;28;19991;-58
2021/01/16 01:48:54;;;;;;;;;;;;;;;;;;5076153;28;19909;-59
2021/01/16 01:51:19;;;;;;;;;;;;;;;;;;5076008;28;19909;-59
2021/01/16 01:53:45;;;;;;;;;;;;;;;;;;5075712;28;19935;-58
2021/01/16 01:56:11;;;;;;;;;;;;;;;;;;5075751;28;20023;-59
2021/01/16 01:58:37;;;;;;;;;;;;;;;;;;5078534;28;20367;-58
2021/01/16 02:01:03;;;;;;;;;;;;;;;;;;5075839;28;19920;-58
2021/01/16 02:03:29;;;;;;;;;;;;;;;;;;5075881;28;20358;-59
2021/01/16 02:05:55;;;;;;;;;;;;;;;;;;5075501;28;19908;-58
2021/01/16 02:08:21;;;;;;;;;;;;;;;;;;5075791;28;19915;-58
2021/01/16 02:10:46;;;;;;;;;;;;;;;;;;5075389;28;19912;-58
2021/01/16 02:13:12;;;;;;;;;;;;;;;;;;5075016;28;19913;-58
2021/01/16 02:15:39;;;;;;;;;;;;;;;;;;5075320;28;19920;-59
2021/01/16 02:18:04;;;;;;;;;;;;;;;;;;5075415;28;19951;-58
2021/01/16 02:20:30;;;;;;;;;;;;;;;;;;5075414;28;19956;-58
2021/01/16 02:22:56;;;;;;;;;;;;;;;;;;5074929;28;19967;-58
2021/01/16 02:25:22;;;;;;;;;;;;;;;;;;5075420;28;19912;-57
2021/01/16 02:27:48;;;;;;;;;;;;;;;;;;5075403;28;20312;-57
2021/01/16 02:30:14;;;;;;;;;;;;;;;;;;5074993;28;19943;-59
2021/01/16 02:32:40;;;;;;;;;;;;;;;;;;5075333;28;19915;-58
2021/01/16 02:35:05;;;;;;;;;;;;;;;;;;5074927;28;19904;-59
2021/01/16 02:37:31;;;;;;;;;;;;;;;;;;5074919;28;19955;-59
2021/01/16 02:39:57;;;;;;;;;;;;;;;;;;5074258;28;20023;-59
2021/01/16 02:42:23;;;;;;;;;;;;;;;;;;5074851;28;19954;-58
2021/01/16 02:44:49;;;;;;;;;;;;;;;;;;5074966;28;19965;-58
2021/01/16 02:47:15;;;;;;;;;;;;;;;;;;5075085;28;19915;-59
2021/01/16 02:49:41;;;;;;;;;;;;;;;;;;5074771;28;20290;-58
2021/01/16 02:52:07;;;;;;;;;;;;;;;;;;5074798;28;19943;-58
2021/01/16 02:54:33;;;;;;;;;;;;;;;;;;5074327;28;19913;-58
2021/01/16 02:56:59;;;;;;;;;;;;;;;;;;5074762;28;19912;-59
2021/01/16 02:59:24;;;;;;;;;;;;;;;;;;5076929;28;19916;-57
2021/01/16 03:01:50;;;;;;;;;;;;;;;;;;5073908;28;19912;-59
2021/01/16 03:04:16;;;;;;;;;;;;;;;;;;5074660;28;19908;-57
2021/01/16 03:06:42;;;;;;;;;;;;;;;;;;5074634;28;20394;-58
2021/01/16 03:09:08;;;;;;;;;;;;;;;;;;5074306;28;19916;-58
2021/01/16 03:11:34;;;;;;;;;;;;;;;;;;5074512;28;19909;-58
2021/01/16 03:14:00;;;;;;;;;;;;;;;;;;5074190;28;20007;-59
2021/01/16 03:16:25;;;;;;;;;;;;;;;;;;5074260;28;19913;-58
2021/01/16 03:18:51;;;;;;;;;;;;;;;;;;5073830;28;19958;-59
2021/01/16 03:21:17;;;;;;;;;;;;;;;;;;5074204;28;19975;-58
2021/01/16 03:23:43;;;;;;;;;;;;;;;;;;5073995;28;19915;-59
2021/01/16 03:26:09;;;;;;;;;;;;;;;;;;5074222;28;19957;-58
2021/01/16 03:28:35;;;;;;;;;;;;;;;;;;5073906;28;19935;-59
2021/01/16 03:31:01;;;;;;;;;;;;;;;;;;5073783;28;20011;-57
2021/01/16 03:33:27;;;;;;;;;;;;;;;;;;5073647;28;19912;-58
2021/01/16 03:35:52;;;;;;;;;;;;;;;;;;5073789;28;19915;-58
2021/01/16 03:38:18;;;;;;;;;;;;;;;;;;5073955;28;20338;-56
2021/01/16 03:40:47;;;;;;;;;;;;;;;;;;5073728;28;19916;-58
2021/01/16 03:43:12;;;;;;;;;;;;;;;;;;5073920;28;19909;-58
2021/01/16 03:45:38;;;;;;;;;;;;;;;;;;5073877;28;20366;-58
2021/01/16 03:48:04;;;;;;;;;;;;;;;;;;5073567;28;20003;-59
2021/01/16 03:50:30;;;;;;;;;;;;;;;;;;5073395;28;19934;-58
2021/01/16 03:52:56;;;;;;;;;;;;;;;;;;5073724;28;19909;-56
2021/01/16 03:55:22;;;;;;;;;;;;;;;;;;5073693;28;20271;-59
2021/01/16 03:57:48;;;;;;;;;;;;;;;;;;5073686;28;20007;-57
2021/01/16 04:00:14;;;;;;;;;;;;;;;;;;5076293;28;19926;-59
2021/01/16 04:02:39;;;;;;;;;;;;;;;;;;5073415;28;19913;-59
2021/01/16 04:05:05;;;;;;;;;;;;;;;;;;5073464;28;20278;-58
2021/01/16 04:07:31;;;;;;;;;;;;;;;;;;5073566;28;20004;-59
2021/01/16 04:09:57;;;;;;;;;;;;;;;;;;5073444;28;20412;-59
2021/01/16 04:12:23;;;;;;;;;;;;;;;;;;5073126;28;19909;-59
2021/01/16 04:14:49;;;;;;;;;;;;;;;;;;5073394;28;19908;-57
2021/01/16 04:17:15;;;;;;;;;;;;;;;;;;5072765;28;20372;-58
2021/01/16 04:19:41;;;;;;;;;;;;;;;;;;5072176;28;19928;-58
2021/01/16 04:22:07;;;;;;;;;;;;;;;;;;5073302;28;19909;-57
2021/01/16 04:24:33;;;;;;;;;;;;;;;;;;5073277;28;20251;-58
2021/01/16 04:26:58;;;;;;;;;;;;;;;;;;5073105;28;19913;-58
2021/01/16 04:29:24;;;;;;;;;;;;;;;;;;5072856;28;20011;-58
2021/01/16 04:31:50;;;;;;;;;;;;;;;;;;5072747;28;19988;-58
2021/01/16 04:34:18;;;;;;;;;;;;;;;;;;5071824;28;20401;-60
2021/01/16 04:36:44;;;;;;;;;;;;;;;;;;5072990;28;19912;-59
2021/01/16 04:39:10;;;;;;;;;;;;;;;;;;5072930;28;19991;-57
2021/01/16 04:41:36;;;;;;;;;;;;;;;;;;5072829;28;20286;-58
2021/01/16 04:44:01;;;;;;;;;;;;;;;;;;5072870;28;20374;-58
2021/01/16 04:46:27;;;;;;;;;;;;;;;;;;5072766;28;20031;-59
2021/01/16 04:48:53;;;;;;;;;;;;;;;;;;5072644;28;19909;-59
2021/01/16 04:51:19;;;;;;;;;;;;;;;;;;5072621;28;19908;-58
2021/01/16 04:53:45;;;;;;;;;;;;;;;;;;5072720;28;19936;-58
2021/01/16 04:56:11;;;;;;;;;;;;;;;;;;5072575;28;19916;-57
2021/01/16 04:58:37;;;;;;;;;;;;;;;;;;5075260;28;19913;-57
2021/01/16 05:01:02;;;;;;;;;;;;;;;;;;5072623;28;19956;-57
2021/01/16 05:03:28;;;;;;;;;;;;;;;;;;5074359;28;19919;-58
2021/01/16 05:05:54;;;;;;;;;;;;;;;;;;5076786;28;20290;-58
2021/01/16 05:08:20;;;;;;;;;;;;;;;;;;5076612;28;20270;-59
2021/01/16 05:10:46;;;;;;;;;;;28.10;37.00;;;;;;5076739;28;19915;-58
2021/01/16 05:13:18;;;;;;;;;;;28.10;37.30;;;;;;5075311;28;19916;-58
2021/01/16 05:15:44;;;;;;;;;;;28.10;37.30;;;;;;5075582;28;19995;-58
2021/01/16 05:18:10;;;;;;;;;;;28.10;37.30;;;;;;5076572;28;19962;-58
2021/01/16 05:20:36;;;;;;;;;;;28.10;37.30;;;;;;5076538;28;19923;-57
2021/01/16 05:23:17;;;;;;;;;;;28.10;37.40;;;;;;5076233;28;20023;-59
2021/01/16 05:25:44;;;;;;;;;;;28.10;37.40;;;;;;5076424;28;19917;-58
2021/01/16 05:28:09;;;;;;;;;;;28.10;37.30;;;;;;5076254;28;20511;-58
2021/01/16 05:30:53;;;;;;;;;;;28.10;37.30;;;;;;5075944;28;19927;-58
2021/01/16 05:33:20;;;;;;;;;;;28.10;37.30;;;;;;5076360;28;20387;-56
2021/01/16 05:35:45;;;;;;;;;;;28.10;37.40;;;;;;5076165;28;19927;-57
2021/01/16 05:38:14;;;;;;;;;;;28.10;37.40;;;;;;5075807;28;20278;-58
2021/01/16 05:40:39;;;;;;;;;;;28.10;37.50;;;;;;5076156;28;20419;-59
2021/01/16 05:43:05;;;;;;;;;;;28.10;37.50;;;;;;5075897;28;19909;-59
2021/01/16 05:45:33;;;;;;;;;;;28.10;37.40;;;;;;5076202;28;19931;-58
2021/01/16 05:47:58;;;;;;;;;;;28.10;37.50;;;;;;5075815;28;19916;-58
2021/01/16 05:50:24;;;;;;;;;;;28.10;37.40;;;;;;5076105;28;19909;-58
2021/01/16 05:52:49;;;;;;;;;;;28.10;37.40;;;;;;5075456;28;20285;-59
2021/01/16 05:55:16;;;;;;;;;;;28.00;37.30;;;;;;5075785;28;19912;-59
2021/01/16 05:57:43;;;;;;;;;;;28.00;37.30;;;;;;5075923;28;19909;-59
2021/01/16 06:00:09;;;;;;;;;;;28.10;37.30;;;;;;5093936;28;20412;-59
2021/01/16 06:02:34;;;;;;;;;;;28.10;37.30;;;;;;5074369;28;20021;-58
2021/01/16 06:05:00;;;;;;;;;;;28.00;37.20;;;;;;5074215;28;19915;-58
2021/01/16 06:07:26;;;;;;;;;;;28.00;37.20;;;;;;5075417;28;19912;-57
2021/01/16 06:09:51;;;;;;;;;;;28.10;37.30;;;;;;5075728;28;19991;-58
2021/01/16 06:12:18;;;;;;;;;;;28.10;37.30;;;;;;5075704;28;19908;-59
2021/01/16 06:14:44;;;;;;;;;;;28.10;37.20;;;;;;5074409;28;19912;-57
2021/01/16 06:17:12;;;;;;;;;;;28.00;37.10;;;;;;5075628;28;19909;-58
2021/01/16 06:19:42;;;;;;;;;;;28.00;37.10;;;;;;5075180;28;19921;-58
2021/01/16 06:22:10;;;;;;;;;;;28.00;37.10;;;;;;5075230;28;20379;-58
2021/01/16 06:24:36;;;;;;;;;;;28.00;37.10;;;;;;5075481;28;19916;-58
2021/01/16 06:27:02;;;;;;;;;;;28.00;37.10;;;;;;5075336;28;19908;-57
2021/01/16 06:29:28;;;;;;;;;;;28.00;37.00;;;;;;5075301;28;20560;-58
2021/01/16 06:32:01;;;;;;;;;;;28.00;37.00;;;;;;5074933;28;19924;-58
2021/01/16 06:34:27;;;;;;;;;;;28.00;36.90;;;;;;5075135;28;19995;-58
2021/01/16 06:36:53;;;;;;;;;;;28.00;37.00;;;;;;5074912;28;19913;-57
2021/01/16 06:39:19;;;;;;;;;;;28.00;36.80;;;;;;5075081;28;19958;-58
2021/01/16 06:41:44;;;;;;;;;;;28.00;36.90;;;;;;5090692;28;20283;-58
2021/01/16 06:44:13;;;;;;;;;;;28.00;37.00;;;;;;5075136;28;19908;-58
2021/01/16 06:46:42;;;;;;;;;;;28.00;37.00;;;;;;5074897;28;19920;-58
2021/01/16 06:49:17;;;;;;;;;;;28.00;36.90;;;;;;5074745;28;19908;-57
2021/01/16 06:51:43;;;;;;;;;;;28.00;37.00;;;;;;5074480;28;19912;-58
2021/01/16 06:54:08;;;;;;;;;;;28.00;36.80;;;;;;5074688;28;19924;-58
2021/01/16 06:56:34;;;;;;;;;;;28.00;36.90;;;;;;5074488;28;20003;-56
2021/01/16 06:59:00;;;;;;;;;;;28.00;36.80;;;;;;5093100;28;19942;-59
2021/01/16 07:01:31;;;;;;;;;;;28.00;36.90;;;;;;5074492;28;19948;-57
2021/01/16 07:04:00;;;;;;;;;;;28.00;36.90;;;;;;5074519;28;19908;-58
2021/01/16 07:06:26;;;;;;;;;;;28.00;36.80;;;;;;5073058;28;19923;-58
2021/01/16 07:08:52;;;;;;;;;;;28.00;36.80;;;;;;5074341;28;19938;-57
2021/01/16 07:11:17;;;;;;;;;;;28.00;36.80;;;;;;5074343;28;20034;-59
2021/01/16 07:13:43;;;;;;;;;;;28.00;36.80;;;;;;5074440;28;19936;-59
2021/01/16 07:16:08;;;;;;;;;;;28.00;36.90;;;;;;5074272;28;20429;-58
2021/01/16 07:18:34;;;;;;;;;;;28.00;36.80;;;;;;5074300;28;20412;-58
2021/01/16 07:21:00;;;;;;;;;;;28.00;36.90;;;;;;5074245;28;20323;-58
2021/01/16 07:23:26;;;;;;;;;;;28.00;36.80;;;;;;5074094;28;19950;-58
2021/01/16 07:25:52;;;;;;;;;;;28.00;36.80;;;;;;5073946;28;20424;-58
2021/01/16 07:28:18;;;;;;;;;;;27.90;36.80;;;;;;5073929;28;20243;-59
2021/01/16 07:30:44;;;;;;;;;;;27.90;36.80;;;;;;5073963;28;19920;-58
2021/01/16 07:33:09;;;;;;;;;;;27.90;36.90;;;;;;5073846;28;19912;-57
2021/01/16 07:35:35;;;;;;;;;;;27.90;36.90;;;;;;5072528;28;19915;-57
2021/01/16 07:38:00;;;;;;;;;;;27.90;36.80;;;;;;5072473;28;20397;-58
2021/01/16 07:40:26;;;;;;;;;;;27.90;36.90;;;;;;5082573;28;20008;-58
2021/01/16 07:42:52;;;;;;;;;;;27.90;36.80;;;;;;5053960;28;19909;-58
2021/01/16 07:45:27;;;;;;;;;;;27.90;36.80;;;;;;5053854;28;19909;-57
2021/01/16 07:47:52;;;;;;;;;;;27.90;36.80;;;;;;5053606;28;20426;-57
2021/01/16 07:50:22;;;;;;;;;;;27.90;36.80;;;;;;5053566;28;19956;-57
2021/01/16 07:52:57;;;;;;;;;;;27.90;36.80;;;;;;5053741;28;20287;-57
2021/01/16 07:55:41;;;;;;;;;;;27.90;36.80;;;;;;5061174;28;19912;-57
2021/01/16 07:58:15;;;;;;;;;;;27.90;36.80;;;;;;5073363;28;19959;-57
2021/01/16 08:00:44;;;;;;;;;;;27.90;36.80;;;;;;5076111;28;20007;-58
2021/01/16 08:03:23;;;;;;;;;;;27.90;36.80;;;;;;5072052;28;20003;-58
2021/01/16 08:06:07;;;;;;;;;;;27.90;36.70;;;;;;5073107;28;20294;-57
2021/01/16 08:08:44;;;;;;;;;;;27.90;36.50;;;;;;5073463;28;20007;-58
2021/01/16 08:11:10;;;;;;;;;;;27.90;36.60;;;;;;5072819;28;20039;-58
2021/01/16 08:13:36;;;;;;;;;;;27.90;36.60;;;;;;5088786;28;19909;-58
2021/01/16 08:16:04;;;;;;;;;;;27.90;36.70;;;;;;5088976;28;19918;-57
2021/01/16 08:18:31;;;;;;;;;;;27.90;36.70;;;;;;5088702;28;19912;-56
2021/01/16 08:20:57;;;;;;;;;;;27.90;36.80;;;;;;5088608;28;19939;-58
2021/01/16 08:23:23;;;;;;;;;;;27.90;36.80;;;;;;5088963;28;20374;-58
2021/01/16 08:25:48;;;;;;;;;;;27.90;36.70;;;;;;5072414;28;19932;-57
2021/01/16 08:28:20;;;;;;;;;;;27.90;36.60;;;;;;5073123;28;19908;-58
2021/01/16 08:30:46;;;;;;;;;;;27.90;36.70;;;;;;5072745;28;20424;-58
2021/01/16 08:33:12;;;;;;;;;;;27.90;36.70;;;;;;5073148;28;19908;-58
2021/01/16 08:35:45;;;;;;;;;;;27.90;36.50;;;;;;5073106;28;19941;-57
2021/01/16 08:38:16;;;;;;;;;;;27.90;36.60;;;;;;5072303;28;19912;-58
2021/01/16 08:40:53;;;;;;;;;;;27.90;36.60;;;;;;5072728;28;19920;-57
2021/01/16 08:43:37;;;;;;;;;;;27.90;36.60;;;;;;5072798;28;20256;-58
2021/01/16 08:46:08;;;;;;;;;;;27.90;36.60;;;;;;5072665;28;20374;-57
2021/01/16 08:48:34;;;;;;;;;;;27.90;36.60;;;;;;5072748;28;19909;-58
2021/01/16 08:50:59;;;;;;;;;;;27.90;36.70;;;;;;5072627;28;20382;-57
2021/01/16 08:53:25;;;;;;;;;;;27.80;36.70;;;;;;5072955;28;19920;-58
2021/01/16 08:55:50;;;;;;;;;;;27.90;36.60;;;;;;5072421;28;19920;-58
2021/01/16 08:58:16;;;;;;;;;;;27.80;36.70;;;;;;5072424;28;19947;-58
2021/01/16 09:00:42;;;;;;;;;;;27.80;36.70;;;;;;5075158;28;19923;-57
2021/01/16 09:03:07;;;;;;;;;;;;;;;;;;5072557;28;19947;-61
2021/01/16 09:05:33;;;;;;;;;;;27.80;32.00;;;;;;5072435;28;19947;-61
2021/01/16 09:07:59;;;;;;;;;;;27.70;32.60;;;;;;5072871;28;19916;-61
2021/01/16 09:10:25;;;;;;;;;;;27.80;32.70;;;;;;5072411;28;20337;-61
2021/01/16 09:12:50;;;;;;;;;;;27.80;32.60;;;;;;5072505;28;20011;-61
2021/01/16 09:15:23;;;;;;;;;;;27.80;32.80;;;;;;5072719;28;19912;-61
2021/01/16 09:18:06;;;;;;;;;;;27.80;32.60;;;;;;5072635;28;19917;-61
2021/01/16 09:20:32;;;;;;;;;;;27.90;32.70;;;;;;5072249;28;20278;-61
2021/01/16 09:22:58;;;;;;;;;;;27.90;32.70;;;;;;5072336;28;19909;-61
2021/01/16 09:25:24;;;;;;;;;;;27.90;32.70;;;;;;5071475;28;19916;-61
2021/01/16 09:27:50;;;;;;;;;;;27.80;32.80;;;;;;5074849;28;19908;-58
2021/01/16 09:30:22;;;;;;;;;;;27.80;32.90;;;;;;5064576;28;20294;-58
2021/01/16 09:32:48;;;;;;;;;;;27.80;33.60;;;;;;5056970;28;20568;-58
2021/01/16 09:35:13;;;;;;;;;;;27.90;36.10;;;;;;5052278;28;19912;-59
2021/01/16 09:37:39;;;;;;;;;;;27.90;39.10;;;;;;5068043;28;19959;-54
2021/01/16 09:40:11;;;;;;;;;;;28.10;42.10;;;;;;5072341;28;19924;-56
2021/01/16 09:42:44;;;;;;;;;;;28.10;43.50;;;;;;5055620;28;19913;-55
2021/01/16 09:45:10;;;;;;;;;;;28.00;43.50;;;;;;5055341;28;20061;-56
2021/01/16 09:47:35;;;;;;;;;;;28.00;43.60;;;;;;5086428;28;19912;-56
2021/01/16 09:50:01;;;;;;;;;;;27.90;43.10;;;;;;5078445;28;19982;-53
2021/01/16 09:52:27;;;;;;;;;;;27.90;42.40;;;;;;5077489;28;19912;-51
2021/01/16 09:54:53;;;;;;;;;;;27.90;41.70;;;;;;5079709;28;19916;-53
2021/01/16 09:57:34;;;;;;;;;;;27.80;41.30;;;;;;5077199;28;19912;-54
2021/01/16 10:00:09;;;;;;;;;;;27.80;41.50;;;;;;5078581;28;19913;-54
2021/01/16 10:02:34;;;;;;;;;;;27.80;41.10;;;;;;5055962;28;19913;-55
2021/01/16 10:05:00;;;;;;;;;;;27.80;41.30;;;;;;5071058;28;20310;-52
2021/01/16 10:07:27;;;;;;;;;;;27.70;41.10;;;;;;5071098;28;19952;-53
2021/01/16 10:09:52;;;;;;;;;;;27.70;41.40;;;;;;5070681;28;20351;-52
2021/01/16 10:12:38;;;;;;;;;;;27.70;41.10;;;;;;5055627;28;20406;-55
2021/01/16 10:15:04;;;;;;;;;;;27.70;40.80;;;;;;5058690;28;19913;-50
2021/01/16 10:17:33;;;;;;;;;;;27.80;40.30;;;;;;5076594;28;19912;-52
2021/01/16 10:20:04;;;;;;;;;;;27.80;40.10;;;;;;5075590;28;19977;-53
2021/01/16 10:22:30;;;;;;;;;;;27.80;39.80;;;;;;5075551;28;19926;-54
2021/01/16 10:24:58;;;;;;;;;;;27.80;39.50;;;;;;5075203;28;19912;-52
2021/01/16 10:27:40;;;;;;;;;;;27.90;39.60;;;;;;5075296;28;19964;-54
2021/01/16 10:30:06;;;;;;;;;;;27.80;39.30;;;;;;5077404;28;19912;-53
2021/01/16 10:32:31;;;;;;;;;;;27.80;39.20;;;;;;5082257;28;19921;-55
2021/01/16 10:34:59;;;;;;;;;;;27.80;39.10;;;;;;5087786;28;20001;-50
2021/01/16 10:37:28;;;;;;;;;;;27.80;39.10;;;;;;5094397;28;19926;-53
2021/01/16 10:39:53;;;;;;;;;;;27.80;39.00;;;;;;5095045;28;20362;-52
2021/01/16 10:42:19;;;;;;;;;;;27.80;38.90;;;;;;5094045;28;19922;-53
2021/01/16 10:44:44;;;;;;;;;;;27.80;38.90;;;;;;5095459;28;20299;-52
2021/01/16 10:47:32;;;;;;;;;;;27.80;38.70;;;;;;5094957;28;19970;-54
2021/01/16 10:50:01;;;;;;;;;;;27.80;38.60;;;;;;5095136;28;19912;-53
2021/01/16 10:52:27;;;;;;;;;;;27.80;38.60;;;;;;5089956;28;19954;-53
2021/01/16 10:54:56;;;;;;;;;;;27.80;38.60;;;;;;5080789;28;20339;-53
2021/01/16 10:57:22;;;;;;;;;;;27.80;38.50;;;;;;5074663;28;19908;-56
2021/01/16 10:59:54;;;;;;;;;;;27.80;38.40;;;;;;5092846;28;19932;-54
2021/01/16 11:02:35;;;;;;;;;;;27.80;38.30;;;;;;5075132;28;19916;-51
2021/01/16 11:05:18;;;;;;;;;;;27.80;38.20;;;;;;5074793;28;19957;-52
2021/01/16 11:07:44;;;;;;;;;;;27.80;38.30;;;;;;5074354;28;19987;-52
2021/01/16 11:10:10;;;;;;;;;;;27.80;38.20;;;;;;5074422;28;19909;-53
2021/01/16 11:12:39;;;;;;;;;;;27.80;38.10;;;;;;5074583;28;20381;-54
2021/01/16 11:15:25;;;;;;;;;;;27.80;38.10;;;;;;5076369;28;19995;-52
2021/01/16 11:17:53;;;;;;;;;;;27.80;38.00;;;;;;5081506;28;20427;-55
2021/01/16 11:20:31;;;;;;;;;;;27.80;37.90;;;;;;5074059;28;19928;-52
2021/01/16 11:23:12;;;;;;;;;;;27.80;37.90;;;;;;5074315;28;19908;-52
2021/01/16 11:25:41;;;;;;;;;;;27.70;37.80;;;;;;5074316;28;19908;-55
2021/01/16 11:28:07;;;;;;;;;;;27.80;37.80;;;;;;5073911;28;20374;-53
2021/01/16 11:30:37;;;;;;;;;;;27.80;37.70;;;;;;5073747;28;19915;-55
2021/01/16 11:33:06;;;;;;;;;;;27.80;37.70;;;;;;5089509;28;19986;-52
2021/01/16 11:35:41;;;;;;;;;;;27.70;37.60;;;;;;5093009;28;19998;-54
2021/01/16 11:38:27;;;;;;;;;;;27.80;37.60;;;;;;5094257;28;19915;-55
2021/01/16 11:40:53;;;;;;;;;;;27.80;37.60;;;;;;5086230;28;19994;-52
2021/01/16 11:43:18;;;;;;;;;;;27.80;37.50;;;;;;5093999;28;20380;-52
2021/01/16 11:45:44;;;;;;;;;;;27.70;37.50;;;;;;5088969;28;19916;-54
2021/01/16 11:48:10;;;;;;;;;;;27.70;37.50;;;;;;5094191;28;20010;-53
2021/01/16 11:50:36;;;;;;;;;;;27.70;37.50;;;;;;5092444;28;19931;-55
2021/01/16 11:53:07;;;;;;;;;;;27.70;37.30;;;;;;5093682;28;19908;-53
2021/01/16 11:55:32;;;;;;;;;;;27.80;37.40;;;;;;5076871;28;19912;-54
2021/01/16 11:57:59;;;;;;;;;;;27.70;37.30;;;;;;5093661;28;20254;-52
2021/01/16 12:00:24;;;;;;;;;;;27.80;37.30;;;;;;5077234;28;19965;-53
2021/01/16 12:02:50;;;;;;;;;;;27.70;37.10;;;;;;5072344;28;19916;-55
2021/01/16 12:05:19;;;;;;;;;;;27.80;37.20;;;;;;5073241;28;20314;-54
2021/01/16 12:07:51;;;;;;;;;;;27.80;37.10;;;;;;5073119;28;19912;-55
2021/01/16 12:10:17;;;;;;;;;;;27.70;37.10;;;;;;5075025;28;19954;-53
2021/01/16 12:12:43;;;;;;;;;;;27.70;37.10;;;;;;5092443;28;20362;-54
2021/01/16 12:15:15;;;;;;;;;;;27.70;37.00;;;;;;5093600;28;19927;-54
2021/01/16 12:17:41;;;;;;;;;;;27.70;37.00;;;;;;5093397;28;19908;-54
2021/01/16 12:20:06;;;;;;;;;;;27.70;36.90;;;;;;5093037;28;20018;-55
2021/01/16 12:22:32;;;;;;;;;;;27.70;36.80;;;;;;5093264;28;19915;-54
2021/01/16 12:24:58;;;;;;;;;;;27.80;36.90;;;;;;5090323;28;20362;-55
2021/01/16 12:27:23;;;;;;;;;;;27.80;36.80;;;;;;5072842;28;19954;-52
2021/01/16 12:29:52;;;;;;;;;;;27.80;36.80;;;;;;5073191;28;19912;-54
2021/01/16 12:32:17;;;;;;;;;;;27.80;36.70;;;;;;5072890;28;19920;-53
2021/01/16 12:35:03;;;;;;;;;;;27.80;36.60;;;;;;5072860;28;19909;-54
2021/01/16 12:37:29;;;;;;;;;;;27.80;36.60;;;;;;5072225;28;20285;-53
2021/01/16 12:39:55;;;;;;;;;;;27.70;36.60;;;;;;5072170;28;19920;-54
2021/01/16 12:42:21;;;;;;;;;;;27.70;36.50;;;;;;5072788;28;19975;-55
2021/01/16 12:44:46;;;;;;;;;;;27.70;36.50;;;;;;5088370;28;19909;-55
2021/01/16 12:47:21;;;;;;;;;;;27.70;37.10;;;;;;5088563;28;19908;-53
2021/01/16 12:49:50;;;;;;;;;;;27.80;36.50;;;;;;5072842;28;19909;-56
2021/01/16 12:52:28;;;;;;;;;;;27.80;36.40;;;;;;5072435;28;19956;-56
2021/01/16 12:55:00;;;;;;;;;;;27.80;36.40;;;;;;5077354;28;20392;-56
2021/01/16 12:57:33;;;;;;;;;;;27.70;36.30;;;;;;5082250;28;20408;-55
2021/01/16 12:59:59;;;;;;;;;;;27.70;36.40;;;;;;5075123;28;19974;-55
2021/01/16 13:02:25;;;;;;;;;;;27.80;36.40;;;;;;5072768;28;19937;-56
2021/01/16 13:04:54;;;;;;;;;;;27.70;36.30;;;;;;5071145;28;19912;-55
2021/01/16 13:07:20;;;;;;;;;;;27.80;36.30;;;;;;5072839;28;19912;-55
2021/01/16 13:09:45;;;;;;;;;;;27.80;36.30;;;;;;5073088;28;20366;-56
2021/01/16 13:12:10;;;;;;;;;;;27.70;36.30;;;;;;5091595;28;19912;-54
2021/01/16 13:14:54;;;;;;;;;;;27.80;36.30;;;;;;5093005;28;20385;-53
2021/01/16 13:17:21;;;;;;;;;;;27.80;36.20;;;;;;5093058;28;19961;-55
2021/01/16 13:19:46;;;;;;;;;;;27.80;36.20;;;;;;5092839;28;19912;-55
2021/01/16 13:22:18;;;;;;;;;;;27.70;36.20;;;;;;5092982;28;20331;-55
2021/01/16 13:24:44;;;;;;;;;;;27.70;36.20;;;;;;5091371;28;19919;-53
2021/01/16 13:27:20;;;;;;;;;;;27.70;36.10;;;;;;5096863;28;19909;-53
2021/01/16 13:29:48;;;;;;;;;;;27.70;36.10;;;;;;5096536;28;19920;-55
2021/01/16 13:32:13;;;;;;;;;;;27.70;36.10;;;;;;5094947;28;20332;-53
2021/01/16 13:34:39;;;;;;;;;;;27.80;36.10;;;;;;5078505;28;19916;-55
2021/01/16 13:37:04;;;;;;;;;;;27.70;36.00;;;;;;5075925;28;19909;-54
2021/01/16 13:39:32;;;;;;;;;;;27.80;36.10;;;;;;5076329;28;19952;-55
2021/01/16 13:41:57;;;;;;;;;;;27.70;36.00;;;;;;5076035;28;19923;-55
2021/01/16 13:44:25;;;;;;;;;;;27.80;36.00;;;;;;5091702;28;19909;-53
2021/01/16 13:46:50;;;;;;;;;;;27.80;36.00;;;;;;5076138;28;19923;-52
2021/01/16 13:49:23;;;;;;;;;;;27.80;35.90;;;;;;5090418;28;19916;-55
2021/01/16 13:51:48;;;;;;;;;;;27.80;35.90;;;;;;5096214;28;19923;-55
2021/01/16 13:54:14;;;;;;;;;;;27.80;35.90;;;;;;5096096;28;20278;-55
2021/01/16 13:56:43;;;;;;;;;;;27.80;35.80;;;;;;5094978;28;19915;-55
2021/01/16 13:59:13;;;;;;;;;;;27.80;35.80;;;;;;5091564;28;19913;-54
2021/01/16 14:01:39;;;;;;;;;;;27.80;35.80;;;;;;5075966;28;19920;-55
2021/01/16 14:04:05;;;;;;;;;;;27.80;35.80;;;;;;5089222;28;20438;-55
2021/01/16 14:06:50;;;;;;;;;;;27.80;35.80;;;;;;5075915;28;20122;-55
2021/01/16 14:09:26;;;;;;;;;;;27.70;35.70;;;;;;5075308;28;20382;-57
2021/01/16 14:11:52;;;;;;;;;;;27.70;35.80;;;;;;5075468;28;19908;-55
2021/01/16 14:14:21;;;;;;;;;;;27.70;35.80;;;;;;5075478;28;19966;-54
2021/01/16 14:16:47;;;;;;;;;;;27.80;35.80;;;;;;5075779;28;19909;-55
2021/01/16 14:19:12;;;;;;;;;;;27.80;35.80;;;;;;5076895;28;20349;-55
2021/01/16 14:21:38;;;;;;;;;;;27.70;35.70;;;;;;5095599;28;19927;-52
2021/01/16 14:24:09;;;;;;;;;;;27.80;35.70;;;;;;5095527;28;19995;-54
2021/01/16 14:26:35;;;;;;;;;;;27.80;35.60;;;;;;5095720;28;19908;-55
2021/01/16 14:29:07;;;;;;;;;;;27.80;35.60;;;;;;5095605;28;20369;-54
2021/01/16 14:31:42;;;;;;;;;;;27.80;35.60;;;;;;5095069;28;20437;-55
2021/01/16 14:34:07;;;;;;;;;;;27.70;35.50;;;;;;5083285;28;20048;-53
2021/01/16 14:36:33;;;;;;;;;;;27.70;35.50;;;;;;5073965;28;19947;-55
2021/01/16 14:39:13;;;;;;;;;;;27.70;35.60;;;;;;5075305;28;20358;-52
2021/01/16 14:41:39;;;;;;;;;;;27.80;35.50;;;;;;5074920;28;20362;-54
2021/01/16 14:44:05;;;;;;;;;;;27.70;35.50;;;;;;5075000;28;19932;-54
2021/01/16 14:46:31;;;;;;;;;;;27.70;36.00;;;;;;5074949;28;20001;-54
2021/01/16 14:48:56;;;;;;;;;;;27.70;35.40;;;;;;5087384;28;19939;-55
2021/01/16 14:51:25;;;;;;;;;;;27.70;35.40;;;;;;5095313;28;20353;-54
2021/01/16 14:53:56;;;;;;;;;;;27.70;35.40;;;;;;5095256;28;20270;-53
2021/01/16 14:56:22;;;;;;;;;;;27.70;35.30;;;;;;5095170;28;19915;-52
2021/01/16 14:59:02;;;;;;;;;;;27.70;35.20;;;;;;5092483;28;19912;-52
2021/01/16 15:01:37;;;;;;;;;;;27.80;35.30;;;;;;5074713;28;20101;-54
2021/01/16 15:04:03;;;;;;;;;;;27.80;35.30;;;;;;5074892;28;19924;-51
2021/01/16 15:06:47;;;;;;;;;;;27.80;35.20;;;;;;5074455;28;19924;-51